Time;durP1;ratioP1;P1;durP2;ratioP2;P2;SDS_P1;SDS_P2;PMS_P1;PMS_P2;Temp;Humidity;BMP_temperature;BMP_pressure;BME280_temperature;BME280_humidity;BME280_pressure;Samples;Min_cycle;Max_cycle;Signal;HPM_P1;HPM_P2
2022/10/03 00:01:09;;;;;;;2.15;1.27;;;;;;;10.26;100.00;98060.62;1689621;85;21010;-63
2022/10/03 00:03:59;;;;;;;3.62;1.10;;;;;;;10.24;100.00;98050.32;1671303;85;21002;-65
2022/10/03 00:06:40;;;;;;;4.33;1.30;;;;;;;10.21;100.00;98053.11;1658445;86;21079;-63
2022/10/03 00:09:22;;;;;;;3.62;1.57;;;;;;;10.17;100.00;98054.69;1689704;84;21170;-65
2022/10/03 00:11:59;;;;;;;;;;;;;;;10.13;100.00;98054.50;1692211;85;20971;-64
2022/10/03 00:14:44;;;;;;;2.95;1.57;;;;;;;10.11;100.00;98048.56;1689349;85;20119;-64
2022/10/03 00:17:31;;;;;;;4.40;1.70;;;;;;;10.08;100.00;98052.18;1689764;85;20959;-63
2022/10/03 00:20:14;;;;;;;5.35;1.45;;;;;;;10.08;100.00;98050.05;1658654;86;21094;-64
2022/10/03 00:22:49;;;;;;;1.80;1.10;;;;;;;10.09;100.00;98052.55;1686087;85;22013;-64
2022/10/03 00:25:40;;;;;;;5.30;1.47;;;;;;;10.11;100.00;98050.70;1689842;85;21062;-63
2022/10/03 00:28:44;;;;;;;3.52;1.55;;;;;;;10.13;100.00;98045.41;1658220;86;21501;-64
2022/10/03 00:31:15;;;;;;;3.42;1.42;;;;;;;10.16;100.00;98042.16;1688877;84;21022;-63
2022/10/03 00:34:00;;;;;;;4.22;2.33;;;;;;;10.19;100.00;98045.06;1658674;86;20978;-64
2022/10/03 00:36:41;;;;;;;3.87;1.30;;;;;;;10.22;100.00;98043.09;1689161;84;21165;-63
2022/10/03 00:39:26;;;;;;;4.08;1.27;;;;;;;10.25;100.00;98028.61;1680272;85;20963;-64
2022/10/03 00:42:07;;;;;;;2.92;1.67;;;;;;;10.29;100.00;98048.74;1634248;87;21503;-64
2022/10/03 00:45:08;;;;;;;3.30;1.60;;;;;;;10.27;100.00;98041.50;1680276;85;21094;-64
2022/10/03 00:47:46;;;;;;;2.77;1.30;;;;;;;10.26;100.00;98049.77;1649477;87;21096;-64
2022/10/03 00:50:47;;;;;;;2.30;1.32;;;;;;;10.27;100.00;98050.59;1680264;85;21877;-64
2022/10/03 00:53:31;;;;;;;4.62;1.70;;;;;;;10.25;100.00;98057.66;1649329;87;21046;-64
2022/10/03 00:56:16;;;;;;;3.50;1.40;;;;;;;10.21;100.00;98034.92;1680322;85;20983;-64
2022/10/03 00:59:11;;;;;;;2.95;1.20;;;;;;;10.18;100.00;98052.45;1649468;87;21023;-64
2022/10/03 01:01:47;;;;;;;5.33;1.55;;;;;;;10.16;100.00;98037.43;1656003;85;21523;-64
2022/10/03 01:04:36;;;;;;;3.47;1.67;;;;;;;10.10;100.00;98033.90;1649515;87;21174;-64
2022/10/03 01:07:38;;;;;;;4.08;1.32;;;;;;;10.06;100.00;98036.31;1680234;85;20967;-63
2022/10/03 01:10:21;;;;;;;3.70;2.02;;;;;;;10.05;100.00;98025.55;1680308;85;21074;-64
2022/10/03 01:13:05;;;;;;;2.67;1.20;;;;;;;10.05;100.00;98028.98;1649390;87;21027;-64
2022/10/03 01:15:49;;;;;;;3.87;2.10;;;;;;;10.07;100.00;98023.70;1680354;85;20975;-64
2022/10/03 01:18:36;;;;;;;1.32;0.90;;;;;;;10.10;100.00;98024.34;1648275;85;21254;-64
2022/10/03 01:21:24;;;;;;;4.10;1.98;;;;;;;10.16;100.00;98025.73;1649287;87;21680;-64
2022/10/03 01:23:59;;;;;;;3.20;1.67;;;;;;;10.20;100.00;98024.16;1680328;85;21003;-64
2022/10/03 01:26:55;;;;;;;3.58;1.37;;;;;;;10.24;100.00;98022.20;1680268;85;21006;-65
2022/10/03 01:32:35;;;;;;;2.60;1.47;;;;;;;10.30;100.00;98012.73;1649461;87;21259;-63
2022/10/03 01:35:22;;;;;;;2.65;1.40;;;;;;;10.34;100.00;98016.81;1680219;85;21573;-64
2022/10/03 01:38:19;;;;;;;2.85;1.60;;;;;;;10.35;100.00;98016.72;1662449;85;20967;-63
2022/10/03 01:41:01;;;;;;;5.90;2.60;;;;;;;10.37;100.00;98007.98;1649560;87;21550;-63
2022/10/03 01:43:54;;;;;;;5.55;1.37;;;;;;;10.39;100.00;98012.63;1680005;85;21007;-63
2022/10/03 01:46:37;;;;;;;4.83;1.55;;;;;;;10.40;100.00;98007.30;1649537;87;21148;-63
2022/10/03 01:49:22;;;;;;;;;;;;;;;10.42;100.00;97999.41;1682756;85;21098;-63
2022/10/03 01:52:20;;;;;;;4.40;1.50;;;;;;;10.42;100.00;98004.61;1680438;85;20428;-63
2022/10/03 01:55:24;;;;;;;3.70;1.70;;;;;;;10.41;100.00;98005.07;1634979;87;21031;-64
2022/10/03 02:08:06;;;;;;;4.50;1.57;;;;;;;10.41;100.00;98003.77;1680373;85;21063;-64
2022/10/03 02:10:48;;;;;;;4.03;1.50;;;;;;;10.41;100.00;98011.57;1649428;87;21149;-64
2022/10/03 02:13:29;;;;;;;5.97;1.65;;;;;;;10.41;100.00;98003.77;1680497;85;21030;-64
2022/10/03 02:16:10;;;;;;;4.37;1.87;;;;;;;10.42;100.00;97999.41;1680263;85;21222;-64
2022/10/03 02:18:59;;;;;;;4.05;1.70;;;;;;;10.42;100.00;98005.44;1649284;87;21071;-64
2022/10/03 02:21:29;;;;;;;3.45;1.72;;;;;;;10.43;100.00;98000.61;1680424;85;21490;-64
2022/10/03 02:24:20;;;;;;;4.72;1.60;;;;;;;10.44;100.00;98003.58;1681010;85;21019;-64
2022/10/03 02:27:04;;;;;;;3.60;1.95;;;;;;;10.45;100.00;98001.81;1648975;87;21082;-63
2022/10/03 02:30:15;;;;;;;3.35;1.87;;;;;;;10.46;100.00;98004.32;1676580;85;22000;-64
2022/10/03 02:33:19;;;;;;;3.58;1.65;;;;;;;10.48;100.00;97995.13;1619048;88;21048;-63
2022/10/03 02:36:00;;;;;;;2.87;1.47;;;;;;;10.49;100.00;98001.53;1649885;87;21035;-63
2022/10/03 02:38:43;;;;;;;3.22;1.95;;;;;;;10.48;100.00;97999.86;1671916;83;21038;-63
2022/10/03 02:41:42;;;;;;;7.35;2.08;;;;;;;10.48;100.00;98010.25;1670336;85;21023;-63
2022/10/03 02:44:46;;;;;;;4.28;2.10;;;;;;;10.46;100.00;98009.52;1676006;85;21156;-63
2022/10/03 02:47:55;;;;;;;4.05;1.50;;;;;;;10.47;100.00;98011.19;1645574;87;21011;-69
2022/10/03 02:51:01;;;;;;;6.47;2.08;;;;;;;10.49;100.00;98020.19;1645751;87;20986;-68
2022/10/03 02:53:57;;;;;;;4.50;2.10;;;;;;;10.52;100.00;98020.00;1631803;87;21066;-68
2022/10/03 02:57:03;;;;;;;3.02;1.50;;;;;;;10.49;100.00;98015.83;1628820;88;21005;-72
2022/10/03 02:59:42;;;;;;;2.55;1.70;;;;;;;10.48;100.00;98021.13;1638515;87;21180;-72
2022/10/03 03:03:03;;;;;;;3.87;1.82;;;;;;;10.44;100.00;98023.08;1638355;87;21017;-72
2022/10/03 03:05:58;;;;;;;5.72;1.85;;;;;;;10.42;100.00;98021.50;1634644;87;21022;-73
2022/10/03 03:08:57;;;;;;;2.98;1.60;;;;;;;10.40;100.00;98031.99;1621809;88;21061;-73
2022/10/03 03:12:04;;;;;;;2.80;1.50;;;;;;;10.41;100.00;98025.86;1628973;88;21565;-73
2022/10/03 03:15:19;;;;;;;3.30;1.70;;;;;;;10.44;100.00;98028.73;1634453;87;21431;-73
2022/10/03 03:17:52;;;;;;;3.45;2.08;;;;;;;10.46;100.00;98019.91;1629740;87;21513;-73
2022/10/03 03:20:28;;;;;;;;;;;;;;;10.47;100.00;98017.69;1631400;88;20990;-73
2022/10/03 03:23:26;;;;;;;3.42;1.40;;;;;;;10.46;100.00;98021.21;1621581;88;20149;-73
2022/10/03 03:26:19;;;;;;;2.98;2.00;;;;;;;10.44;100.00;98017.88;1662421;85;21007;-73
2022/10/03 03:29:07;;;;;;;4.55;2.00;;;;;;;10.39;100.00;98019.13;1637954;87;21163;-72
2022/10/03 03:32:03;;;;;;;2.20;1.60;;;;;;;10.32;100.00;98010.41;1628645;88;21066;-73
2022/10/03 03:34:51;;;;;;;3.52;2.12;;;;;;;10.26;100.00;97996.50;1610089;89;21011;-73
2022/10/03 03:37:23;;;;;;;3.02;1.80;;;;;;;10.16;100.00;97998.45;1615384;88;21028;-73
2022/10/03 03:39:55;;;;;;;3.87;2.20;;;;;;;10.05;100.00;98000.41;1623070;88;21471;-73
2022/10/03 03:42:46;;;;;;;4.58;2.02;;;;;;;9.94;100.00;97996.37;1628902;88;21148;-73
2022/10/03 03:45:39;;;;;;;3.52;1.75;;;;;;;9.85;100.00;97995.63;1610549;88;21464;-73
2022/10/03 03:48:42;;;;;;;4.90;1.85;;;;;;;9.76;100.00;98003.53;1661299;86;21466;-72
2022/10/03 03:51:42;;;;;;;3.85;1.82;;;;;;;9.69;100.00;98004.83;1656312;86;20991;-73
2022/10/03 03:54:18;;;;;;;6.58;2.50;;;;;;;9.63;100.00;98002.59;1635216;86;21450;-73
2022/10/03 03:57:13;;;;;;;4.67;2.08;;;;;;;9.63;100.00;98015.11;1654416;86;21170;-73
2022/10/03 04:00:15;;;;;;;10.23;1.82;;;;;;;9.66;100.00;98006.30;1648996;86;21470;-73
2022/10/03 04:02:56;;;;;;;3.15;2.08;;;;;;;9.66;100.00;98007.60;1656601;86;21022;-73
2022/10/03 04:05:46;;;;;;;4.17;2.10;;;;;;;9.64;100.00;98003.80;1656239;86;20987;-73
2022/10/03 04:08:27;;;;;;;3.42;1.62;;;;;;;9.61;100.00;98018.26;1657709;86;21454;-73
2022/10/03 04:11:37;;;;;;;2.37;1.70;;;;;;;9.59;100.00;98030.98;1653524;86;21478;-73
2022/10/03 04:14:34;;;;;;;6.58;2.08;;;;;;;9.63;100.00;98036.34;1656031;86;21632;-73
2022/10/03 04:20:43;;;;;;;3.05;1.82;;;;;;;9.80;100.00;98038.74;1656030;86;20995;-73
2022/10/03 04:23:49;;;;;;;3.98;1.77;;;;;;;9.88;100.00;98043.02;1656089;86;21002;-72
2022/10/03 04:26:33;;;;;;;2.75;1.82;;;;;;;9.94;100.00;98037.92;1656109;86;21992;-72
2022/10/03 04:29:17;;;;;;;4.25;1.80;;;;;;;10.02;100.00;98046.05;1624277;86;21032;-73
2022/10/03 04:32:23;;;;;;;4.83;1.70;;;;;;;10.08;100.00;98050.88;1654843;86;21073;-73
2022/10/03 04:35:13;;;;;;;2.95;1.30;;;;;;;10.14;100.00;98053.57;1656114;86;20987;-72
2022/10/03 04:38:22;;;;;;;5.40;1.90;;;;;;;10.21;100.00;98050.97;1655535;85;20985;-71
2022/10/03 04:41:37;;;;;;;2.87;1.82;;;;;;;10.26;100.00;98054.96;1667343;86;21158;-72
2022/10/03 04:44:34;;;;;;;2.27;1.55;;;;;;;10.32;100.00;98049.39;1662166;85;21041;-73
2022/10/03 04:47:21;;;;;;;3.85;1.57;;;;;;;10.37;100.00;98045.20;1667941;86;21015;-73
2022/10/03 04:50:12;;;;;;;2.90;1.77;;;;;;;10.40;100.00;98052.78;1671524;85;21006;-74
2022/10/03 04:52:47;;;;;;;6.22;2.40;;;;;;;10.43;100.00;98051.77;1670719;86;21431;-73
2022/10/03 04:55:29;;;;;;;1.77;1.50;;;;;;;10.43;100.00;98051.77;1678867;85;21142;-73
2022/10/03 04:58:27;;;;;;;3.75;1.70;;;;;;;10.44;100.00;98055.56;1676788;85;21014;-73
2022/10/03 05:01:17;;;;;;;2.55;1.60;;;;;;;10.47;100.00;98057.97;1668952;84;21438;-73
2022/10/03 05:04:29;;;;;;;3.90;1.40;;;;;;;10.50;100.00;98059.55;1660285;85;21562;-73
2022/10/03 05:07:14;;;;;;;4.78;2.20;;;;;;;10.52;100.00;98057.23;1676039;84;21058;-73
2022/10/03 05:10:15;;;;;;;3.83;1.90;;;;;;;10.55;100.00;98056.20;1651343;86;21229;-73
2022/10/03 05:13:10;;;;;;;1.72;1.40;;;;;;;10.58;100.00;98056.84;1614074;88;21046;-73
2022/10/03 05:15:43;;;;;;;4.75;1.95;;;;;;;10.62;100.00;98056.98;1624351;86;21076;-73
2022/10/03 05:18:24;;;;;;;5.05;2.72;;;;;;;10.64;100.00;98062.93;1603031;89;21034;-74
2022/10/03 05:21:04;;;;;;;2.13;1.83;;;;;;;10.65;100.00;98063.30;1613714;87;21089;-73
2022/10/03 05:24:15;;;;;;;5.45;1.45;;;;;;;10.69;100.00;98063.95;1623029;88;21981;-73
2022/10/03 05:27:06;;;;;;;2.55;1.45;;;;;;;10.76;100.00;98068.30;1603548;89;21357;-74
2022/10/03 05:29:45;;;;;;;3.20;1.65;;;;;;;10.84;100.00;98069.45;1627666;88;21187;-72
2022/10/03 05:32:40;;;;;;;5.83;1.70;;;;;;;10.88;99.47;98067.48;1628859;88;20987;-73
2022/10/03 05:35:46;;;;;;;3.60;1.92;;;;;;;10.92;99.49;98078.07;1610862;87;21085;-72
2022/10/03 05:38:36;;;;;;;4.45;1.52;;;;;;;10.96;98.77;98078.24;1602439;88;21200;-73
2022/10/03 05:41:24;;;;;;;5.55;1.57;;;;;;;11.01;98.54;98090.46;1615072;88;21066;-73
2022/10/03 05:44:02;;;;;;;3.22;1.35;;;;;;;11.04;98.28;98093.70;1613444;89;20980;-74
2022/10/03 05:46:55;;;;;;;3.90;1.60;;;;;;;11.07;97.88;98090.54;1613365;89;21542;-74
2022/10/03 05:49:31;;;;;;;3.87;1.62;;;;;;;11.09;97.53;98089.51;1612295;89;26645;-74
2022/10/03 05:52:31;;;;;;;3.12;1.30;;;;;;;11.16;96.89;98085.58;1608792;89;21903;-74
2022/10/03 05:55:36;;;;;;;3.90;1.22;;;;;;;11.26;96.25;98089.23;1622171;88;21038;-74
2022/10/03 05:58:34;;;;;;;6.60;2.00;;;;;;;11.37;95.77;98085.47;1621692;88;21038;-74
2022/10/03 06:01:33;;;;;;;3.70;1.60;;;;;;;11.47;94.31;98079.16;1625837;88;21061;-74
2022/10/03 06:04:35;;;;;;;2.50;1.22;;;;;;;11.54;94.00;98080.89;1597046;88;21017;-74
2022/10/03 06:07:25;;;;;;;3.15;1.47;;;;;;;11.62;93.35;98075.52;1663697;85;22180;-76
2022/10/03 06:10:24;;;;;;;7.17;2.30;;;;;;;11.68;92.51;98087.30;1670756;85;21050;-73
2022/10/03 06:13:20;;;;;;;2.95;2.10;;;;;;;11.72;91.84;98084.39;1663999;85;21098;-74
2022/10/03 06:16:21;;;;;;;5.28;1.85;;;;;;;11.78;91.42;98084.48;1669933;85;21079;-74
2022/10/03 06:19:28;;;;;;;3.67;1.47;;;;;;;11.82;91.29;98086.38;1649444;85;20991;-75
2022/10/03 06:22:36;;;;;;;6.17;2.45;;;;;;;11.88;91.20;98089.41;1666570;85;21233;-73
2022/10/03 06:25:42;;;;;;;1.42;1.10;;;;;;;11.95;90.38;98087.23;1666227;85;21061;-74
2022/10/03 06:28:27;;;;;;;2.90;1.40;;;;;;;12.01;89.86;98085.01;1649668;85;21546;-74
2022/10/03 06:31:25;;;;;;;4.47;1.42;;;;;;;12.10;89.56;98093.14;1670223;85;21050;-74
2022/10/03 06:34:30;;;;;;;2.87;1.22;;;;;;;12.15;88.95;98085.84;1664122;85;21061;-74
2022/10/03 06:37:11;;;;;;;3.15;1.55;;;;;;;12.24;88.83;98093.00;1649432;85;21503;-73
2022/10/03 06:40:20;;;;;;;3.22;1.40;;;;;;;12.28;88.57;98087.48;1662270;85;21046;-74
2022/10/03 06:43:23;;;;;;;4.92;2.05;;;;;;;12.30;88.21;98095.19;1659063;85;21018;-74
2022/10/03 06:46:37;;;;;;;5.08;1.57;;;;;;;12.28;88.37;98100.98;1688875;83;21037;-73
2022/10/03 06:49:26;;;;;;;4.37;1.40;;;;;;;12.22;88.85;98108.75;1721743;83;21076;-73
2022/10/03 06:52:08;;;;;;;3.35;1.62;;;;;;;12.20;88.63;98093.69;1683878;83;21526;-74
2022/10/03 06:55:19;;;;;;;2.47;1.40;;;;;;;12.25;88.77;98103.33;1687662;85;21435;-74
2022/10/03 06:58:14;;;;;;;6.78;1.70;;;;;;;12.28;87.61;98094.47;1687213;85;21050;-73
2022/10/03 07:01:04;;;;;;;4.65;2.12;;;;;;;12.30;87.12;98105.16;1651869;85;21124;-74
2022/10/03 07:03:41;;;;;;;2.60;1.82;;;;;;;12.32;87.41;98100.66;1687555;85;21136;-74
2022/10/03 07:06:32;;;;;;;7.83;1.77;;;;;;;12.41;86.82;98106.98;1686359;85;21105;-75
2022/10/03 07:09:44;;;;;;;7.47;2.60;;;;;;;12.51;86.45;98108.49;1687571;85;21053;-74
2022/10/03 07:12:32;;;;;;;3.83;2.17;;;;;;;12.55;85.68;98116.47;1687148;85;21544;-74
2022/10/03 07:15:54;;;;;;;4.50;1.87;;;;;;;12.57;85.39;98121.94;1648211;85;21061;-75
2022/10/03 07:18:52;;;;;;;4.53;1.52;;;;;;;12.62;85.66;98117.20;1687669;85;21049;-73
2022/10/03 07:21:31;;;;;;;4.40;1.72;;;;;;;12.62;84.87;98125.50;1659830;83;22814;-73
2022/10/03 07:24:40;;;;;;;3.47;1.65;;;;;;;12.56;86.45;98120.27;1688098;82;21486;-73
2022/10/03 07:27:31;;;;;;;4.67;2.00;;;;;;;12.47;88.09;98106.56;1686370;85;21065;-74
2022/10/03 07:30:20;;;;;;;5.60;2.60;;;;;;;12.43;89.07;98124.67;1687980;85;21002;-74
2022/10/03 07:33:31;;;;;;;3.25;1.50;;;;;;;12.50;89.00;98126.38;1687457;85;21054;-74
2022/10/03 07:39:51;;;;;;;3.27;2.10;;;;;;;12.62;87.44;98135.47;1680609;85;21101;-73
2022/10/03 07:42:47;;;;;;;4.30;2.20;;;;;;;12.67;88.34;98125.55;1664005;85;21050;-73
2022/10/03 07:45:30;;;;;;;3.80;1.80;;;;;;;12.69;90.14;98134.57;1670945;85;21077;-73
2022/10/03 07:48:12;;;;;;;3.45;1.70;;;;;;;12.55;91.00;98130.81;1671403;85;21091;-73
2022/10/03 07:50:51;;;;;;;3.42;1.65;;;;;;;12.31;90.11;98131.59;1671079;85;21222;-73
2022/10/03 07:53:57;;;;;;;5.15;1.98;;;;;;;12.09;91.53;98134.00;1674284;85;21069;-73
2022/10/03 07:57:02;;;;;;;4.90;2.20;;;;;;;11.93;93.16;98126.41;1658733;85;21585;-73
2022/10/03 08:00:10;;;;;;;5.53;2.70;;;;;;;11.80;95.62;98128.16;1664128;85;20991;-73
2022/10/03 08:02:52;;;;;;;6.85;2.02;;;;;;;11.71;97.54;98130.91;1664013;85;21038;-73
2022/10/03 08:06:00;;;;;;;1.70;1.60;;;;;;;11.77;98.41;98131.00;1669296;85;21275;-73
2022/10/03 08:09:01;;;;;;;4.33;1.90;;;;;;;11.86;99.22;98131.66;1637643;87;21027;-73
2022/10/03 08:12:24;;;;;;;4.10;2.12;;;;;;;11.96;99.09;98130.58;1637242;87;21090;-74
2022/10/03 08:15:12;;;;;;;6.87;3.15;;;;;;;12.02;98.72;98130.14;1666688;84;21342;-73
2022/10/03 08:17:45;;;;;;;3.47;1.90;;;;;;;12.12;98.72;98124.67;1670749;85;21561;-73
2022/10/03 08:20:38;;;;;;;3.05;1.70;;;;;;;12.24;98.12;98127.73;1668463;85;21149;-74
2022/10/03 08:23:31;;;;;;;3.27;1.72;;;;;;;12.35;97.28;98110.88;1656565;85;21030;-73
2022/10/03 08:26:07;;;;;;;1.90;1.70;;;;;;;12.56;94.55;98118.97;1678937;85;21187;-73
2022/10/03 08:28:51;;;;;;;2.62;1.60;;;;;;;12.79;93.03;98112.08;1673337;85;21026;-73
2022/10/03 08:32:04;;;;;;;3.02;1.47;;;;;;;12.92;90.62;98118.11;1668465;85;21026;-73
2022/10/03 08:34:59;;;;;;;1.85;1.15;;;;;;;12.93;88.04;98111.95;1669307;85;21231;-73
2022/10/03 08:37:44;;;;;;;3.15;1.62;;;;;;;12.91;87.09;98115.61;1671205;85;21063;-74
2022/10/03 08:40:41;;;;;;;1.95;1.25;;;;;;;12.92;86.41;98122.49;1681156;84;21049;-74
2022/10/03 08:43:44;;;;;;;3.47;1.62;;;;;;;12.94;86.01;98125.35;1692786;84;21050;-73
2022/10/03 08:46:42;;;;;;;1.75;1.30;;;;;;;12.97;84.83;98129.52;1688735;84;21105;-74
2022/10/03 08:49:44;;;;;;;2.58;1.30;;;;;;;12.96;84.12;98122.16;1687367;83;21238;-73
2022/10/03 08:52:17;;;;;;;1.72;1.22;;;;;;;12.99;85.14;98123.22;1687113;85;21057;-74
2022/10/03 08:55:30;;;;;;;2.02;1.40;;;;;;;12.98;85.30;98120.75;1687121;85;27062;-75
2022/10/03 08:58:06;;;;;;;2.02;0.93;;;;;;;12.93;85.16;98113.25;1687760;85;21589;-74
2022/10/03 09:01:14;;;;;;;1.32;1.20;;;;;;;12.98;84.13;98111.62;1675146;83;21138;-75
2022/10/03 09:04:05;;;;;;;1.70;1.12;;;;;;;13.11;82.37;98104.55;1671963;85;21347;-74
2022/10/03 09:07:12;;;;;;;1.65;1.07;;;;;;;13.30;81.56;98100.14;1671101;85;47254;-75
2022/10/03 09:10:18;;;;;;;2.05;1.40;;;;;;;13.44;80.67;98114.30;1671663;85;21052;-74
2022/10/03 09:13:27;;;;;;;2.35;1.30;;;;;;;13.62;80.79;98118.14;1618394;85;21089;-74
2022/10/03 09:16:35;;;;;;;2.10;1.57;;;;;;;13.85;78.65;98109.04;1671429;85;21152;-74
2022/10/03 09:19:44;;;;;;;4.62;1.30;;;;;;;14.00;77.30;98097.41;1640982;85;21217;-73
2022/10/03 09:22:56;;;;;;;3.02;2.20;;;;;;;14.07;75.97;98099.44;1665519;85;21052;-73
2022/10/03 09:25:31;;;;;;;1.47;1.15;;;;;;;14.02;75.82;98100.73;1697014;84;21101;-73
2022/10/03 09:28:43;;;;;;;2.67;1.40;;;;;;;13.99;77.20;98099.19;1685194;85;21078;-73
2022/10/03 09:31:33;;;;;;;2.95;1.30;;;;;;;14.16;78.38;98105.75;1687337;85;21052;-73
2022/10/03 09:34:24;;;;;;;5.97;0.93;;;;;;;14.45;76.05;98108.72;1645896;85;21884;-73
2022/10/03 09:37:31;;;;;;;1.15;0.72;;;;;;;14.63;73.60;98100.72;1686668;85;21033;-73
2022/10/03 09:40:24;;;;;;;1.35;0.72;;;;;;;14.79;72.74;98097.23;1686413;83;21014;-74
2022/10/03 09:43:29;;;;;;;3.50;0.70;;;;;;;14.83;71.22;98089.48;1682921;85;21042;-75
2022/10/03 09:46:24;;;;;;;;;;;;;;;14.71;70.32;98102.27;1669627;83;21081;-75
2022/10/03 09:49:31;;;;;;;4.20;1.57;;;;;;;14.55;69.51;98094.45;1688469;83;21812;-73
2022/10/03 09:52:27;;;;;;;3.40;0.82;;;;;;;14.49;69.44;98104.91;1675190;83;21492;-73
2022/10/03 09:55:14;;;;;;;1.37;0.80;;;;;;;14.38;70.89;98095.28;1591314;85;21516;-73
2022/10/03 09:58:15;;;;;;;0.72;0.70;;;;;;;14.38;70.89;98095.28;1653813;84;21060;-73
2022/10/03 10:00:59;;;;;;;4.97;0.75;;;;;;;14.51;69.92;98100.39;1661642;83;21047;-74
2022/10/03 10:03:51;;;;;;;6.05;1.10;;;;;;;14.61;69.27;98092.16;1659463;86;21180;-74
2022/10/03 10:06:35;;;;;;;1.32;0.60;;;;;;;14.70;69.27;98094.53;1632253;86;21040;-74
2022/10/03 10:09:43;;;;;;;2.47;0.80;;;;;;;14.81;69.21;98104.48;1657649;86;21110;-74
2022/10/03 10:12:57;;;;;;;2.98;0.90;;;;;;;14.76;68.92;98104.52;1611452;88;21132;-74
2022/10/03 10:15:57;;;;;;;5.30;0.82;;;;;;;14.65;68.47;98100.59;1534803;93;21325;-73
2022/10/03 10:18:48;;;;;;;2.52;0.98;;;;;;;14.53;67.28;98098.49;1551212;92;22165;-73
2022/10/03 10:22:13;;;;;;;2.52;0.90;;;;;;;14.59;66.82;98098.49;1582909;90;21185;-74
2022/10/03 10:25:05;;;;;;;;;;;;;;;14.65;67.14;98101.91;1580404;90;21110;-73
2022/10/03 10:28:27;;;;;;;3.10;1.40;;;;;;;14.66;68.32;98103.09;1577573;90;20158;-74
2022/10/03 10:31:36;;;;;;;0.60;0.60;;;;;;;14.55;66.74;98097.90;1552728;92;21149;-76
2022/10/03 10:34:42;;;;;;;3.25;0.80;;;;;;;14.55;66.74;98097.90;1552589;92;21158;-75
2022/10/03 10:37:53;;;;;;;1.40;0.70;;;;;;;14.45;68.71;98108.24;1552505;92;21070;-75
2022/10/03 10:40:53;;;;;;;1.82;0.60;;;;;;;14.50;69.37;98101.82;1601045;87;21062;-75
2022/10/03 10:43:42;;;;;;;1.25;0.57;;;;;;;14.38;69.37;98100.98;1645493;86;21031;-75
2022/10/03 10:46:51;;;;;;;4.80;0.80;;;;;;;14.30;70.24;98122.50;1638111;85;21014;-75
2022/10/03 10:49:30;;;;;;;8.55;1.15;;;;;;;14.33;71.07;98110.97;1678499;85;21291;-76
2022/10/03 10:52:36;;;;;;;2.00;0.68;;;;;;;14.43;72.21;98100.16;1678584;85;21071;-76
2022/10/03 10:55:51;;;;;;;1.67;0.80;;;;;;;14.54;73.00;98102.77;1677543;85;21075;-75
2022/10/03 10:58:47;;;;;;;1.82;0.80;;;;;;;14.67;72.03;98106.55;1672104;85;21595;-75
2022/10/03 11:01:54;;;;;;;2.05;1.27;;;;;;;14.72;69.93;98112.25;1678480;85;21610;-75
2022/10/03 11:04:48;;;;;;;4.47;1.37;;;;;;;14.65;70.74;98117.61;1678001;85;22137;-74
2022/10/03 11:07:48;;;;;;;5.50;1.40;;;;;;;14.67;70.21;98121.77;1638347;85;21119;-75
2022/10/03 11:10:51;;;;;;;1.40;1.07;;;;;;;14.74;70.40;98118.20;1678599;84;21636;-75
2022/10/03 11:13:31;;;;;;;;;;;;;;;14.72;70.13;98117.48;1680730;83;21051;-75
2022/10/03 11:16:34;;;;;;;0.95;0.50;;;;;;;14.65;66.96;98100.12;1678558;85;20184;-74
2022/10/03 11:19:56;;;;;;;3.27;1.40;;;;;;;14.65;66.96;98100.12;1678746;85;21276;-75
2022/10/03 11:22:35;;;;;;;2.30;0.80;;;;;;;14.55;67.06;98099.68;1678730;85;21114;-74
2022/10/03 11:25:57;;;;;;;5.58;1.12;;;;;;;14.52;66.42;98106.46;1678127;85;21396;-74
2022/10/03 11:28:42;;;;;;;1.70;0.88;;;;;;;14.56;66.75;98102.18;1678504;84;21075;-74
2022/10/03 11:32:01;;;;;;;4.53;1.10;;;;;;;14.58;65.27;98102.89;1652121;85;21143;-75
2022/10/03 11:34:52;;;;;;;1.25;0.80;;;;;;;14.50;66.70;98086.13;1631292;85;21302;-75
2022/10/03 11:37:43;;;;;;;3.87;1.60;;;;;;;14.50;66.70;98086.13;1664997;85;21081;-76
2022/10/03 11:40:33;;;;;;;7.05;1.25;;;;;;;14.67;66.80;98092.16;1650941;85;21070;-76
2022/10/03 11:43:21;;;;;;;2.55;1.30;;;;;;;14.67;66.80;98092.16;1671067;85;21067;-75
2022/10/03 11:45:57;;;;;;;3.95;0.90;;;;;;;14.70;66.21;98088.82;1643758;87;21378;-75
2022/10/03 11:48:41;;;;;;;2.27;1.10;;;;;;;14.72;66.39;98096.55;1640512;87;21917;-75
2022/10/03 11:51:41;;;;;;;1.87;0.90;;;;;;;14.72;66.39;98096.55;1632246;86;22212;-76
2022/10/03 11:54:26;;;;;;;3.42;1.20;;;;;;;14.64;67.07;98099.77;1595325;87;21041;-76
2022/10/03 11:57:18;;;;;;;2.87;1.30;;;;;;;14.54;67.46;98103.25;1610359;89;21096;-71
2022/10/03 12:00:11;;;;;;;3.77;1.70;;;;;;;14.39;67.72;98100.00;1621004;85;21107;-71
2022/10/03 12:03:18;;;;;;;4.60;1.80;;;;;;;14.24;68.82;98094.20;1633120;87;21878;-71
2022/10/03 12:09:20;;;;;;;2.98;1.17;;;;;;;14.21;67.94;98093.13;1600787;87;21108;-71
2022/10/03 12:12:01;;;;;;;5.55;1.02;;;;;;;14.22;67.13;98092.65;1606544;87;21550;-71
2022/10/03 12:14:34;;;;;;;2.00;1.22;;;;;;;14.24;67.52;98094.20;1633324;87;21074;-70
2022/10/03 12:17:17;;;;;;;3.92;1.27;;;;;;;14.28;68.21;98087.78;1643892;87;21906;-71
2022/10/03 12:20:21;;;;;;;3.37;1.20;;;;;;;14.38;67.68;98086.13;1677164;85;26928;-71
2022/10/03 12:23:00;;;;;;;2.80;1.05;;;;;;;14.51;66.15;98085.17;1679673;85;21556;-71
2022/10/03 12:25:33;;;;;;;2.50;1.20;;;;;;;14.63;66.62;98090.25;1675635;85;21630;-72
2022/10/03 12:28:14;;;;;;;4.10;1.80;;;;;;;14.63;66.62;98090.25;1652974;85;21032;-71
2022/10/03 12:30:59;;;;;;;4.55;1.25;;;;;;;14.67;67.64;98102.62;1679016;85;21266;-70
2022/10/03 12:33:39;;;;;;;2.47;1.12;;;;;;;14.71;67.28;98102.27;1678127;85;21023;-71
2022/10/03 12:36:16;;;;;;;2.25;1.10;;;;;;;14.81;66.59;98090.08;1677622;85;21012;-71
2022/10/03 12:39:06;;;;;;;3.10;1.80;;;;;;;14.93;64.24;98097.44;1676223;85;21012;-71
2022/10/03 12:42:15;;;;;;;1.55;0.75;;;;;;;14.93;62.96;98093.52;1667963;85;21073;-71
2022/10/03 12:45:05;;;;;;;1.77;0.65;;;;;;;14.81;60.06;98096.63;1644950;85;21534;-72
2022/10/03 12:48:01;;;;;;;1.87;0.80;;;;;;;14.47;60.53;98098.49;1670872;85;20974;-71
2022/10/03 12:50:49;;;;;;;2.25;1.15;;;;;;;14.47;60.53;98098.49;1660403;85;21062;-71
2022/10/03 12:53:22;;;;;;;2.87;0.82;;;;;;;14.31;61.32;98090.16;1648727;85;21054;-71
2022/10/03 12:56:13;;;;;;;3.27;0.82;;;;;;;14.12;61.90;98097.30;1636065;86;21088;-71
2022/10/03 12:58:56;;;;;;;4.30;0.85;;;;;;;13.96;62.41;98107.29;1637485;86;21107;-72
2022/10/03 13:01:55;;;;;;;3.25;1.10;;;;;;;13.86;62.82;98098.94;1633747;87;21024;-71
2022/10/03 13:04:46;;;;;;;1.90;1.37;;;;;;;13.77;63.11;98104.42;1638702;87;21048;-71
2022/10/03 13:07:24;;;;;;;3.15;1.00;;;;;;;13.65;63.32;98097.48;1644020;87;21564;-71
2022/10/03 13:10:16;;;;;;;1.98;1.15;;;;;;;13.55;65.37;98102.59;1643771;87;21571;-72
2022/10/03 13:12:54;;;;;;;3.37;1.10;;;;;;;13.51;66.81;98111.59;1618860;88;21408;-72
2022/10/03 13:15:43;;;;;;;2.65;1.25;;;;;;;13.48;67.61;98105.30;1629180;87;21444;-71
2022/10/03 13:18:40;;;;;;;2.67;0.90;;;;;;;13.49;68.07;98107.43;1642437;87;21120;-71
2022/10/03 13:21:31;;;;;;;3.87;1.20;;;;;;;13.52;68.02;98115.04;1633769;86;21048;-71
2022/10/03 13:24:06;;;;;;;2.87;1.02;;;;;;;13.53;67.57;98098.42;1636341;86;21078;-71
2022/10/03 13:26:58;;;;;;;6.75;1.60;;;;;;;13.51;67.38;98112.07;1630886;86;21267;-70
2022/10/03 13:29:39;;;;;;;3.83;1.40;;;;;;;13.45;67.57;98105.52;1622263;87;21031;-71
2022/10/03 13:32:28;;;;;;;3.37;1.40;;;;;;;13.38;67.73;98105.63;1646962;85;21086;-71
2022/10/03 13:38:45;;;;;;;4.15;1.20;;;;;;;13.29;67.95;98109.75;1671792;85;21031;-71
2022/10/03 13:41:43;;;;;;;3.25;0.90;;;;;;;13.30;68.10;98108.80;1670611;83;21298;-71
2022/10/03 13:44:22;;;;;;;1.50;0.88;;;;;;;13.33;68.62;98110.36;1683199;85;21060;-71
2022/10/03 13:47:19;;;;;;;1.72;1.15;;;;;;;13.33;69.20;98107.28;1640618;87;21121;-70
2022/10/03 13:50:03;;;;;;;2.25;1.40;;;;;;;13.32;69.76;98113.44;1678273;85;21065;-71
2022/10/03 13:52:51;;;;;;;2.15;1.42;;;;;;;13.36;72.75;98112.75;1678093;85;21614;-71
2022/10/03 13:55:42;;;;;;;3.10;1.47;;;;;;;13.36;75.15;98103.14;1679446;85;21955;-70
2022/10/03 13:59:05;;;;;;;3.95;1.30;;;;;;;13.34;75.65;98093.75;1652475;85;21022;-70